Terminal Aerodrome Forecast
Issued by NWS Springfield, MO

Home | Current Version | Previous Version | Text Only | Print | Product List | Glossary On
Versions: 1 2 3 4 5 6 7 8 9 10 11 12 13 14 15 16 17 18 19 20 21 22 23 24 25 26 27 28 29 30
000
FTUS43 KSGF 240700 AAA
TAFSGF
TAF AMD
KSGF 240726Z 2407/2506 30014G20KT P6SM -RA SCT020 OVC060
     FM240900 29012G17KT P6SM SCT025 OVC120
     FM241500 27018G28KT P6SM SCT035
     FM242300 28008KT P6SM SKC=

USA.gov is the U.S. government's official web portal to all federal, state and local government web resources and services.